createdAt,value
2018-10-16T00:02:03.808Z,99.90
2018-10-16T00:04:37.702Z,99.90
2018-10-16T00:07:10.388Z,99.90
2018-10-16T00:09:43.192Z,99.90
2018-10-16T00:12:16.409Z,99.90
2018-10-16T00:14:49.991Z,99.90
2018-10-16T00:17:28.720Z,99.90
2018-10-16T00:20:02.167Z,99.90
2018-10-16T00:22:36.884Z,99.90
2018-10-16T00:25:11.622Z,99.90
2018-10-16T00:27:44.134Z,99.90
2018-10-16T00:30:17.943Z,99.90
2018-10-16T00:32:50.760Z,99.90
2018-10-16T00:35:25.164Z,99.90
2018-10-16T00:38:03.915Z,99.90
2018-10-16T00:40:37.282Z,99.90
2018-10-16T00:43:11.272Z,99.90
2018-10-16T00:45:44.602Z,99.90
2018-10-16T00:48:17.291Z,99.90
2018-10-16T00:50:56.900Z,99.90
2018-10-16T00:53:29.460Z,99.90
2018-10-16T00:56:08.901Z,99.90
2018-10-16T00:58:44.740Z,99.90
2018-10-16T01:01:21.812Z,99.90
2018-10-16T01:03:55.643Z,99.90
2018-10-16T01:06:30.212Z,99.90
2018-10-16T01:09:02.883Z,99.90
2018-10-16T01:11:36.857Z,99.90
2018-10-16T01:14:11.285Z,99.90
2018-10-16T01:16:46.465Z,99.90
2018-10-16T01:30:33.580Z,99.90
2018-10-16T01:33:07.399Z,99.90
2018-10-16T01:35:46.568Z,99.90
2018-10-16T01:38:20.349Z,99.90
2018-10-16T01:40:53.185Z,99.90
2018-10-16T01:43:26.249Z,99.90
2018-10-16T01:45:59.307Z,99.90
2018-10-16T01:48:38.900Z,99.90
2018-10-16T01:51:11.977Z,99.90
2018-10-16T01:53:57.206Z,99.90
2018-10-16T01:56:34.036Z,99.90
2018-10-16T01:59:07.543Z,99.90
2018-10-16T02:01:41.277Z,99.90
2018-10-16T02:04:14.181Z,99.90
2018-10-16T02:06:48.105Z,99.90
2018-10-16T02:09:20.916Z,99.90
2018-10-16T02:11:53.893Z,99.90
2018-10-16T02:14:27.896Z,99.90
2018-10-16T02:17:00.633Z,99.90
2018-10-16T02:19:44.003Z,99.90
2018-10-16T02:22:17.195Z,99.90
2018-10-16T02:24:50.090Z,99.90
2018-10-16T02:27:23.505Z,99.90
2018-10-16T02:29:58.548Z,99.90
2018-10-16T02:32:32.200Z,99.90
2018-10-16T02:35:05.213Z,99.90
2018-10-16T02:37:38.174Z,99.90
2018-10-16T02:40:12.061Z,99.90
2018-10-16T02:42:45.057Z,99.90
2018-10-16T02:45:17.761Z,99.90
2018-10-16T02:47:50.916Z,99.90
2018-10-16T02:50:23.599Z,99.90
2018-10-16T02:52:56.505Z,99.90
2018-10-16T02:55:30.337Z,99.90
2018-10-16T02:58:03.512Z,99.90
2018-10-16T03:00:36.725Z,99.90
2018-10-16T03:03:11.707Z,99.90
2018-10-16T03:05:44.561Z,99.90
2018-10-16T03:08:23.421Z,99.90
2018-10-16T03:10:56.174Z,99.90
2018-10-16T03:13:29.078Z,99.90
2018-10-16T03:16:01.943Z,99.90
2018-10-16T03:18:35.672Z,99.90
2018-10-16T03:21:08.813Z,99.90
2018-10-16T03:23:41.564Z,99.90
2018-10-16T03:26:14.441Z,99.90
2018-10-16T03:28:48.101Z,99.90
2018-10-16T03:31:26.336Z,99.90
2018-10-16T03:33:59.283Z,99.90
2018-10-16T03:36:32.345Z,99.90
2018-10-16T03:39:05.514Z,99.90
2018-10-16T03:41:44.052Z,99.90
2018-10-16T03:44:24.938Z,99.90
2018-10-16T03:46:58.481Z,99.90
2018-10-16T03:49:32.108Z,99.90
2018-10-16T03:52:05.625Z,99.90
2018-10-16T03:54:41.455Z,99.90
2018-10-16T03:57:16.236Z,99.90
2018-10-16T03:59:49.548Z,99.90
2018-10-16T04:02:22.760Z,99.90
2018-10-16T04:04:56.016Z,99.90
2018-10-16T04:07:31.401Z,99.90
2018-10-16T04:10:05.375Z,99.90
2018-10-16T04:12:38.210Z,99.90
2018-10-16T04:15:12.948Z,99.90
2018-10-16T04:17:47.469Z,99.90
2018-10-16T04:20:24.570Z,99.90
2018-10-16T04:22:57.539Z,99.90
2018-10-16T04:25:30.802Z,99.90
2018-10-16T04:28:04.499Z,99.90
2018-10-16T04:30:37.520Z,99.90
2018-10-16T04:33:10.342Z,99.90
2018-10-16T04:35:44.801Z,99.90
2018-10-16T04:38:20.244Z,99.90
2018-10-16T04:40:55.132Z,99.90
2018-10-16T04:43:33.169Z,99.90
2018-10-16T04:46:05.972Z,99.90
2018-10-16T04:48:38.721Z,99.90
2018-10-16T04:51:12.138Z,99.90
2018-10-16T04:53:45.027Z,99.90
2018-10-16T04:56:17.669Z,99.90
2018-10-16T04:58:52.583Z,99.90
2018-10-16T05:01:28.024Z,99.90
2018-10-16T05:04:00.911Z,99.90
2018-10-16T05:06:35.088Z,99.90
2018-10-16T05:09:09.323Z,99.90
2018-10-16T05:11:47.031Z,99.90
2018-10-16T05:14:19.944Z,99.90
2018-10-16T05:16:54.545Z,99.90
2018-10-16T05:19:32.089Z,99.90
2018-10-16T05:22:05.032Z,99.90
2018-10-16T05:24:41.045Z,99.90
2018-10-16T05:27:14.517Z,99.90
2018-10-16T05:29:47.524Z,99.90
2018-10-16T05:32:20.700Z,99.90
2018-10-16T05:34:54.408Z,99.90
2018-10-16T05:37:27.181Z,99.90
2018-10-16T05:40:00.120Z,99.90
2018-10-16T05:42:33.379Z,99.90
2018-10-16T05:45:06.868Z,99.90
2018-10-16T05:47:40.211Z,99.90
2018-10-16T05:50:18.800Z,99.90
2018-10-16T05:52:53.545Z,99.90
2018-10-16T05:55:27.067Z,99.90
2018-10-16T05:57:59.880Z,99.90
2018-10-16T06:00:46.557Z,99.90
2018-10-16T06:03:19.513Z,99.90
2018-10-16T06:05:53.376Z,99.90
2018-10-16T06:08:33.711Z,99.90
2018-10-16T06:11:07.135Z,99.90
2018-10-16T06:13:39.897Z,99.90
2018-10-16T06:16:13.744Z,99.90
2018-10-16T06:18:46.765Z,99.90
2018-10-16T06:21:19.445Z,99.90
2018-10-16T06:23:52.503Z,99.90
2018-10-16T06:26:25.678Z,99.90
2018-10-16T06:28:58.503Z,99.90
2018-10-16T06:31:31.644Z,99.90
2018-10-16T06:34:09.293Z,99.90
2018-10-16T06:36:44.851Z,99.90
2018-10-16T06:39:22.505Z,99.90
2018-10-16T06:41:55.301Z,99.90
2018-10-16T06:44:29.234Z,99.90
2018-10-16T06:47:05.337Z,99.90
2018-10-16T06:49:38.289Z,99.90
2018-10-16T06:52:11.685Z,99.90
2018-10-16T06:54:47.808Z,99.90
2018-10-16T06:57:20.984Z,99.90
2018-10-16T06:59:54.005Z,99.90
2018-10-16T07:02:26.769Z,99.90
2018-10-16T07:04:59.613Z,99.90
2018-10-16T07:07:32.416Z,99.90
2018-10-16T07:10:06.056Z,99.90
2018-10-16T07:12:39.345Z,99.90
2018-10-16T07:15:12.409Z,99.90
2018-10-16T07:17:45.399Z,99.90
2018-10-16T07:20:19.112Z,99.90
2018-10-16T07:22:52.003Z,99.90
2018-10-16T07:25:25.310Z,99.90
2018-10-16T07:27:59.158Z,99.90
2018-10-16T07:30:33.094Z,99.90
2018-10-16T07:33:06.963Z,99.90
2018-10-16T07:35:40.487Z,99.90
2018-10-16T07:38:13.551Z,99.90
2018-10-16T07:40:46.804Z,99.90
2018-10-16T07:43:24.171Z,99.90
2018-10-16T07:45:57.714Z,99.90
2018-10-16T07:48:30.546Z,99.90
2018-10-16T07:51:03.804Z,99.90
2018-10-16T07:53:36.570Z,99.90
2018-10-16T07:56:09.788Z,99.90
2018-10-16T07:58:42.529Z,99.90
2018-10-16T08:01:15.194Z,99.90
2018-10-16T08:03:48.133Z,99.90
2018-10-16T08:06:22.036Z,99.90
2018-10-16T08:08:59.952Z,99.90
2018-10-16T08:11:32.903Z,99.90
2018-10-16T08:14:07.247Z,99.90
2018-10-16T08:16:40.652Z,99.90
2018-10-16T08:19:16.194Z,99.90
2018-10-16T08:21:49.654Z,99.90
2018-10-16T08:24:22.518Z,99.90
2018-10-16T08:26:55.347Z,99.90
2018-10-16T08:29:34.269Z,99.90
2018-10-16T08:32:07.561Z,99.90
2018-10-16T08:34:41.200Z,99.90
2018-10-16T08:37:15.782Z,99.90
2018-10-16T08:39:52.830Z,99.90
2018-10-16T08:43:41.075Z,99.90
2018-10-16T08:46:23.277Z,99.90
2018-10-16T08:49:06.004Z,99.90
2018-10-16T08:51:46.619Z,99.90
2018-10-16T08:54:24.167Z,99.90
2018-10-16T08:56:57.770Z,99.90
2018-10-16T08:59:31.967Z,99.90
2018-10-16T09:02:05.367Z,99.90
2018-10-16T09:04:40.179Z,99.90
2018-10-16T09:07:15.038Z,99.90
2018-10-16T09:09:54.061Z,99.90
2018-10-16T09:12:26.992Z,99.90
2018-10-16T09:14:59.975Z,99.90
2018-10-16T09:17:32.647Z,99.90
2018-10-16T09:20:05.776Z,99.90
2018-10-16T09:22:38.636Z,99.90
2018-10-16T09:25:13.178Z,99.90
2018-10-16T09:27:45.989Z,99.90
2018-10-16T09:30:18.957Z,99.90
2018-10-16T09:32:51.724Z,99.90
2018-10-16T09:35:29.773Z,99.90
2018-10-16T09:38:02.607Z,99.90
2018-10-16T09:40:35.532Z,99.90
2018-10-16T09:43:11.431Z,99.90
2018-10-16T09:45:44.626Z,99.90
2018-10-16T09:48:19.130Z,99.90
2018-10-16T09:50:53.016Z,99.90
2018-10-16T09:53:26.052Z,99.90
2018-10-16T09:56:00.075Z,99.90
2018-10-16T09:58:32.923Z,99.90
2018-10-16T10:01:11.047Z,99.90
2018-10-16T10:03:44.032Z,99.90
2018-10-16T10:06:21.664Z,99.90
2018-10-16T10:08:54.255Z,99.90
2018-10-16T10:11:27.358Z,99.90
2018-10-16T10:14:00.001Z,99.90
2018-10-16T10:16:37.892Z,99.90
2018-10-16T10:19:10.808Z,99.90
2018-10-16T10:21:43.779Z,99.90
2018-10-16T10:24:16.592Z,99.90
2018-10-16T10:26:49.348Z,99.90
2018-10-16T10:29:23.472Z,99.90
2018-10-16T10:31:56.702Z,99.90
2018-10-16T10:34:29.512Z,99.90
2018-10-16T10:37:02.504Z,99.90
2018-10-16T10:39:42.337Z,99.90
2018-10-16T10:42:15.893Z,99.90
2018-10-16T10:44:48.630Z,99.90
2018-10-16T10:47:21.935Z,99.90
2018-10-16T10:49:54.897Z,99.90
2018-10-16T10:52:28.144Z,99.90
2018-10-16T10:55:00.976Z,99.90
2018-10-16T10:57:40.251Z,99.90
2018-10-16T11:00:16.176Z,99.90
2018-10-16T11:02:50.432Z,99.90
2018-10-16T11:05:23.103Z,99.90
2018-10-16T11:07:56.877Z,99.90
2018-10-16T11:10:29.832Z,99.90
2018-10-16T11:13:02.910Z,99.90
2018-10-16T11:15:36.959Z,99.90
2018-10-16T11:18:09.936Z,99.90
2018-10-16T11:20:42.654Z,99.90
2018-10-16T11:23:20.909Z,99.90
2018-10-16T11:25:53.628Z,99.90
2018-10-16T11:28:27.069Z,99.90
2018-10-16T11:30:59.855Z,99.90
2018-10-16T11:33:32.641Z,99.90
2018-10-16T11:36:05.537Z,99.90
2018-10-16T11:38:38.264Z,99.90
2018-10-16T11:41:11.732Z,99.90
2018-10-16T11:43:44.618Z,99.90
2018-10-16T11:46:17.285Z,99.90
2018-10-16T11:48:50.547Z,99.90
2018-10-16T11:51:23.483Z,99.90
2018-10-16T11:54:01.858Z,99.90
2018-10-16T11:56:34.766Z,99.90
2018-10-16T11:59:07.983Z,99.90
2018-10-16T12:01:40.695Z,99.90
2018-10-16T12:04:13.663Z,99.90
2018-10-16T12:06:46.380Z,99.90
2018-10-16T12:09:19.659Z,99.90
2018-10-16T12:12:00.372Z,99.90
2018-10-16T12:14:37.732Z,99.90
2018-10-16T12:30:18.210Z,99.90
2018-10-16T12:33:12.590Z,99.90
2018-10-16T12:35:55.541Z,99.90
2018-10-16T12:38:29.246Z,99.90
2018-10-16T12:41:02.710Z,99.90
2018-10-16T12:43:36.600Z,99.90
2018-10-16T12:46:11.377Z,99.90
2018-10-16T12:48:45.513Z,99.90
2018-10-16T12:51:26.583Z,99.90
2018-10-16T12:54:01.756Z,99.90
2018-10-16T12:56:35.292Z,99.90
2018-10-16T12:59:08.522Z,99.90
2018-10-16T13:01:44.520Z,99.90
2018-10-16T13:04:17.545Z,99.90
2018-10-16T13:06:50.451Z,99.90
2018-10-16T13:09:24.536Z,99.90
2018-10-16T13:11:57.240Z,99.90
2018-10-16T13:14:31.337Z,99.90
2018-10-16T13:17:04.325Z,99.90
2018-10-16T13:19:37.429Z,99.90
2018-10-16T13:22:16.601Z,99.90
2018-10-16T13:24:52.569Z,99.90
2018-10-16T13:27:25.413Z,99.90
2018-10-16T13:29:59.102Z,99.90
2018-10-16T13:32:35.509Z,99.90
2018-10-16T13:35:13.627Z,99.90
2018-10-16T13:37:51.247Z,99.90
2018-10-16T13:40:32.401Z,99.90
2018-10-16T13:43:10.581Z,99.90
2018-10-16T13:45:51.303Z,99.90
2018-10-16T13:48:34.698Z,99.90
2018-10-16T13:51:07.784Z,99.90
2018-10-16T13:53:45.055Z,99.90
2018-10-16T13:56:20.817Z,99.90
2018-10-16T13:59:04.962Z,99.90
2018-10-16T14:01:54.012Z,99.90
2018-10-16T14:04:40.550Z,99.90
2018-10-16T14:07:15.264Z,99.90
2018-10-16T14:09:55.699Z,99.90
2018-10-16T14:12:30.183Z,99.90
2018-10-16T14:15:07.614Z,99.90
2018-10-16T14:17:44.083Z,99.90
2018-10-16T14:20:17.374Z,99.90
2018-10-16T14:22:50.821Z,99.90
2018-10-16T14:25:29.327Z,99.90
2018-10-16T14:28:02.973Z,99.90
2018-10-16T14:30:36.384Z,99.90
2018-10-16T14:33:12.193Z,99.90
2018-10-16T14:35:47.732Z,99.90
2018-10-16T14:38:25.092Z,99.90
2018-10-16T14:41:03.358Z,99.90
2018-10-16T14:43:38.004Z,99.90
2018-10-16T14:46:11.712Z,99.90
2018-10-16T14:48:45.685Z,99.90
2018-10-16T14:51:27.333Z,99.90
2018-10-16T14:54:01.080Z,99.90
2018-10-16T14:56:36.400Z,99.90
2018-10-16T14:59:09.274Z,99.90
2018-10-16T15:01:44.639Z,99.90
2018-10-16T15:04:26.775Z,99.90
2018-10-16T15:06:59.743Z,99.90
2018-10-16T15:09:33.517Z,99.90
2018-10-16T15:12:06.442Z,99.90
2018-10-16T15:14:39.501Z,99.90
2018-10-16T15:17:17.013Z,99.90
2018-10-16T15:19:51.100Z,99.90
2018-10-16T15:22:23.938Z,99.90
2018-10-16T15:25:04.525Z,99.90
2018-10-16T15:27:37.830Z,99.90
2018-10-16T15:30:12.898Z,99.90
2018-10-16T15:32:48.883Z,99.90
2018-10-16T15:35:22.272Z,99.90
2018-10-16T15:38:01.205Z,99.90
2018-10-16T15:40:37.417Z,99.90
2018-10-16T15:43:10.818Z,99.90
2018-10-16T15:45:44.792Z,99.90
2018-10-16T15:48:22.803Z,99.90
2018-10-16T15:50:59.528Z,99.90
2018-10-16T15:53:33.442Z,99.90
2018-10-16T15:56:07.485Z,99.90
2018-10-16T15:58:41.433Z,99.90
2018-10-16T16:01:17.819Z,99.90
2018-10-16T16:03:51.387Z,99.90
2018-10-16T16:06:26.773Z,99.90
2018-10-16T16:09:08.112Z,99.90
2018-10-16T16:11:45.152Z,99.90
2018-10-16T16:14:18.594Z,99.90
2018-10-16T16:16:51.716Z,99.90
2018-10-16T16:19:26.119Z,99.90
2018-10-16T16:22:01.661Z,99.90
2018-10-16T16:24:42.338Z,99.90
2018-10-16T16:27:19.989Z,99.90
2018-10-16T16:29:52.907Z,99.90
2018-10-16T16:32:28.396Z,99.80
2018-10-16T16:35:03.190Z,99.90
2018-10-16T16:37:37.143Z,99.80
2018-10-16T16:40:11.725Z,99.90
2018-10-16T16:42:45.835Z,99.90
2018-10-16T16:45:19.540Z,99.90
2018-10-16T16:47:57.978Z,99.90
2018-10-16T16:50:33.115Z,99.90
2018-10-16T16:53:06.555Z,99.90
2018-10-16T16:55:40.078Z,99.90
2018-10-16T16:58:15.983Z,99.90
2018-10-16T17:00:54.156Z,99.90
2018-10-16T17:03:29.522Z,99.80
2018-10-16T17:06:03.490Z,99.30
2018-10-16T17:08:37.292Z,99.20
2018-10-16T17:11:10.764Z,99.00
2018-10-16T17:13:44.277Z,98.10
2018-10-16T17:16:23.265Z,98.50
2018-10-16T17:18:57.775Z,98.50
2018-10-16T17:21:32.539Z,98.40
2018-10-16T17:24:06.990Z,98.30
2018-10-16T17:26:41.077Z,97.80
2018-10-16T17:29:14.642Z,98.10
2018-10-16T17:31:47.459Z,98.10
2018-10-16T17:34:21.793Z,97.60
2018-10-16T17:37:00.290Z,97.80
2018-10-16T17:39:34.559Z,97.50
2018-10-16T17:42:07.459Z,97.30
2018-10-16T17:44:41.919Z,96.90
2018-10-16T17:47:18.035Z,97.20
2018-10-16T17:49:52.247Z,97.20
2018-10-16T17:52:26.496Z,96.80
2018-10-16T17:55:02.150Z,96.90
2018-10-16T17:57:41.555Z,97.00
2018-10-16T18:00:17.954Z,97.10
2018-10-16T18:02:51.374Z,96.60
2018-10-16T18:05:30.065Z,96.70
2018-10-16T18:08:03.696Z,96.80
2018-10-16T18:10:47.436Z,96.60
2018-10-16T18:13:21.541Z,96.80
2018-10-16T18:15:56.133Z,96.90
2018-10-16T18:18:31.713Z,97.20
2018-10-16T18:21:13.340Z,97.20
2018-10-16T18:23:46.437Z,97.40
2018-10-16T18:26:24.001Z,97.20
2018-10-16T18:28:56.933Z,97.50
2018-10-16T18:31:30.076Z,97.50
2018-10-16T18:34:03.120Z,97.60
2018-10-16T18:36:36.897Z,97.80
2018-10-16T18:39:11.673Z,97.90
2018-10-16T18:41:48.525Z,97.90
2018-10-16T18:44:21.982Z,98.00
2018-10-16T18:46:55.703Z,97.50
2018-10-16T18:49:29.302Z,97.40
2018-10-16T18:52:03.776Z,97.30
2018-10-16T18:54:37.865Z,96.90
2018-10-16T18:57:12.633Z,96.70
2018-10-16T18:59:45.668Z,96.60
2018-10-16T19:02:19.383Z,96.40
2018-10-16T19:04:52.722Z,96.50
2018-10-16T19:07:27.177Z,96.60
2018-10-16T19:10:00.153Z,96.50
2018-10-16T19:12:33.441Z,96.30
2018-10-16T19:15:07.754Z,96.20
2018-10-16T19:17:42.295Z,96.10
2018-10-16T19:20:22.397Z,96.20
2018-10-16T19:22:56.164Z,96.50
2018-10-16T19:25:34.993Z,96.30
2018-10-16T19:28:08.195Z,96.00
2018-10-16T19:30:41.163Z,95.00
2018-10-16T19:33:18.230Z,94.30
2018-10-16T19:35:56.962Z,94.90
2018-10-16T19:38:30.913Z,93.80
2018-10-16T19:41:03.962Z,92.90
2018-10-16T19:43:37.356Z,93.40
2018-10-16T19:46:11.787Z,93.60
2018-10-16T19:48:45.797Z,93.40
2018-10-16T19:51:20.145Z,93.50
2018-10-16T19:53:55.186Z,93.30
2018-10-16T19:56:29.352Z,93.00
2018-10-16T19:59:02.874Z,93.20
2018-10-16T20:01:36.372Z,93.50
2018-10-16T20:04:09.957Z,93.80
2018-10-16T20:06:42.925Z,93.70
2018-10-16T20:09:15.861Z,94.00
2018-10-16T20:11:50.723Z,94.20
2018-10-16T20:14:27.857Z,93.80
2018-10-16T20:17:03.182Z,94.10
2018-10-16T20:19:36.761Z,94.20
2018-10-16T20:22:11.513Z,94.20
2018-10-16T20:24:44.511Z,93.80
2018-10-16T20:27:23.692Z,94.00
2018-10-16T20:29:57.069Z,93.80
2018-10-16T20:32:31.324Z,94.10
2018-10-16T20:35:05.306Z,93.00
2018-10-16T20:37:43.845Z,93.40
2018-10-16T20:40:17.997Z,93.60
2018-10-16T20:42:52.053Z,93.80
2018-10-16T20:45:26.281Z,95.70
2018-10-16T20:48:02.317Z,96.90
2018-10-16T20:50:36.403Z,97.60
2018-10-16T20:53:10.483Z,98.10
2018-10-16T20:55:48.309Z,99.20
2018-10-16T20:58:23.994Z,99.90
2018-10-16T21:00:58.852Z,99.90
2018-10-16T21:03:33.634Z,99.90
2018-10-16T21:06:07.795Z,99.90
2018-10-16T21:08:47.666Z,99.90
2018-10-16T21:11:27.901Z,99.90
2018-10-16T21:14:01.315Z,99.90
2018-10-16T21:16:35.973Z,99.90
2018-10-16T21:19:09.853Z,99.90
2018-10-16T21:21:42.844Z,99.90
2018-10-16T21:24:16.977Z,99.90
2018-10-16T21:27:13.621Z,99.90
2018-10-16T21:29:46.937Z,99.90
2018-10-16T21:32:19.803Z,99.90
2018-10-16T21:34:53.036Z,99.90
2018-10-16T21:37:26.417Z,99.90
2018-10-16T21:40:01.594Z,99.90
2018-10-16T21:42:34.580Z,99.90
2018-10-16T21:45:12.433Z,99.90
2018-10-16T21:47:48.618Z,99.90
2018-10-16T21:50:25.070Z,99.90
2018-10-16T21:53:02.125Z,99.90
2018-10-16T21:58:32.417Z,99.90
2018-10-16T22:01:11.112Z,99.90
2018-10-16T22:03:48.216Z,99.90
2018-10-16T22:06:30.823Z,99.90
2018-10-16T22:09:04.156Z,99.90
2018-10-16T22:11:39.184Z,99.90
2018-10-16T22:14:13.010Z,99.90
2018-10-16T22:16:47.220Z,99.90
2018-10-16T22:19:21.254Z,99.90
2018-10-16T22:21:54.294Z,99.90
2018-10-16T22:24:31.568Z,99.90
2018-10-16T22:27:05.705Z,99.90
2018-10-16T22:29:38.987Z,99.90
2018-10-16T22:32:12.287Z,99.90
2018-10-16T22:34:45.183Z,99.90
2018-10-16T22:37:19.194Z,99.90
2018-10-16T22:39:54.338Z,99.90
2018-10-16T22:42:28.946Z,99.90
2018-10-16T22:45:06.380Z,99.90
2018-10-16T22:47:47.703Z,99.90
2018-10-16T22:50:22.870Z,99.90
2018-10-16T22:52:58.169Z,99.90
2018-10-16T22:55:32.322Z,99.90
2018-10-16T22:58:08.743Z,99.90
2018-10-16T23:00:47.916Z,99.90
2018-10-16T23:03:23.778Z,99.90
2018-10-16T23:08:42.547Z,99.90
2018-10-16T23:11:22.373Z,99.90
2018-10-16T23:13:58.554Z,99.90
2018-10-16T23:16:34.900Z,99.90
2018-10-16T23:19:08.304Z,99.90
2018-10-16T23:21:43.361Z,99.90
2018-10-16T23:24:20.627Z,99.90
2018-10-16T23:26:55.846Z,99.90
2018-10-16T23:29:30.013Z,99.90
2018-10-16T23:32:09.752Z,99.90
2018-10-16T23:34:42.839Z,99.90
2018-10-16T23:37:21.943Z,99.90
2018-10-16T23:39:59.286Z,99.90
2018-10-16T23:42:32.442Z,99.90
2018-10-16T23:45:07.130Z,99.90
2018-10-16T23:47:40.218Z,99.90
2018-10-16T23:50:14.703Z,99.90
2018-10-16T23:52:48.727Z,99.90
2018-10-16T23:55:22.567Z,99.90
2018-10-16T23:57:59.144Z,99.90
